sensor_id;sensor_type;location;lat;lon;timestamp;P1;durP1;ratioP1;P2;durP2;ratioP2
66800;SDS011;53703;50.326;19.122;2023-08-17T00:00:48;15.70;;;10.90;;
66800;SDS011;53703;50.326;19.122;2023-08-17T00:03:36;16.30;;;10.90;;
66800;SDS011;53703;50.326;19.122;2023-08-17T00:06:10;15.10;;;11.20;;
66800;SDS011;53703;50.326;19.122;2023-08-17T00:08:44;14.20;;;10.40;;
66800;SDS011;53703;50.326;19.122;2023-08-17T00:11:17;16.20;;;10.60;;
66800;SDS011;53703;50.326;19.122;2023-08-17T00:13:51;14.80;;;10.40;;
66800;SDS011;53703;50.326;19.122;2023-08-17T00:16:24;15.10;;;9.90;;
66800;SDS011;53703;50.326;19.122;2023-08-17T00:18:58;14.80;;;11.00;;
66800;SDS011;53703;50.326;19.122;2023-08-17T00:21:31;13.50;;;10.20;;
66800;SDS011;53703;50.326;19.122;2023-08-17T00:24:06;16.30;;;10.80;;
66800;SDS011;53703;50.326;19.122;2023-08-17T00:26:40;10.40;;;10.30;;
66800;SDS011;53703;50.326;19.122;2023-08-17T00:29:13;17.10;;;10.90;;
66800;SDS011;53703;50.326;19.122;2023-08-17T00:31:48;17.50;;;10.50;;
66800;SDS011;53703;50.326;19.122;2023-08-17T00:34:22;15.40;;;10.90;;
66800;SDS011;53703;50.326;19.122;2023-08-17T00:36:56;14.20;;;10.30;;
66800;SDS011;53703;50.326;19.122;2023-08-17T00:39:29;13.70;;;10.10;;
66800;SDS011;53703;50.326;19.122;2023-08-17T00:42:03;14.50;;;10.70;;
66800;SDS011;53703;50.326;19.122;2023-08-17T00:44:38;15.10;;;10.50;;
66800;SDS011;53703;50.326;19.122;2023-08-17T00:47:12;14.30;;;9.90;;
66800;SDS011;53703;50.326;19.122;2023-08-17T00:49:46;14.20;;;10.10;;
66800;SDS011;53703;50.326;19.122;2023-08-17T00:52:20;14.50;;;10.40;;
66800;SDS011;53703;50.326;19.122;2023-08-17T00:54:54;15.20;;;10.00;;
66800;SDS011;53703;50.326;19.122;2023-08-17T00:57:28;14.90;;;9.60;;
66800;SDS011;53703;50.326;19.122;2023-08-17T01:00:03;15.60;;;9.80;;
66800;SDS011;53703;50.326;19.122;2023-08-17T01:02:38;15.80;;;10.10;;
66800;SDS011;53703;50.326;19.122;2023-08-17T01:05:13;14.20;;;9.50;;
66800;SDS011;53703;50.326;19.122;2023-08-17T01:07:46;14.60;;;9.70;;
66800;SDS011;53703;50.326;19.122;2023-08-17T01:10:20;14.30;;;9.10;;
66800;SDS011;53703;50.326;19.122;2023-08-17T01:13:00;13.30;;;9.50;;
66800;SDS011;53703;50.326;19.122;2023-08-17T01:15:45;14.50;;;9.80;;
66800;SDS011;53703;50.326;19.122;2023-08-17T01:18:26;16.00;;;10.80;;
66800;SDS011;53703;50.326;19.122;2023-08-17T01:21:03;16.10;;;10.80;;
66800;SDS011;53703;50.326;19.122;2023-08-17T01:23:39;16.20;;;10.00;;
66800;SDS011;53703;50.326;19.122;2023-08-17T01:26:13;14.10;;;9.30;;
66800;SDS011;53703;50.326;19.122;2023-08-17T01:28:47;14.10;;;9.80;;
66800;SDS011;53703;50.326;19.122;2023-08-17T01:31:23;15.40;;;9.70;;
66800;SDS011;53703;50.326;19.122;2023-08-17T01:34:05;14.40;;;10.10;;
66800;SDS011;53703;50.326;19.122;2023-08-17T01:36:44;14.20;;;9.40;;
66800;SDS011;53703;50.326;19.122;2023-08-17T01:39:36;14.20;;;9.30;;
66800;SDS011;53703;50.326;19.122;2023-08-17T01:42:16;12.40;;;9.10;;
66800;SDS011;53703;50.326;19.122;2023-08-17T01:44:50;14.40;;;9.50;;
66800;SDS011;53703;50.326;19.122;2023-08-17T01:47:24;12.90;;;9.10;;
66800;SDS011;53703;50.326;19.122;2023-08-17T01:49:58;14.80;;;9.80;;
66800;SDS011;53703;50.326;19.122;2023-08-17T01:52:31;12.90;;;8.90;;
66800;SDS011;53703;50.326;19.122;2023-08-17T01:55:06;13.80;;;9.20;;
66800;SDS011;53703;50.326;19.122;2023-08-17T01:57:40;13.80;;;9.10;;
66800;SDS011;53703;50.326;19.122;2023-08-17T02:00:15;12.10;;;8.60;;
66800;SDS011;53703;50.326;19.122;2023-08-17T02:02:49;15.10;;;9.20;;
66800;SDS011;53703;50.326;19.122;2023-08-17T02:05:22;12.30;;;8.50;;
66800;SDS011;53703;50.326;19.122;2023-08-17T02:07:58;13.60;;;8.90;;
66800;SDS011;53703;50.326;19.122;2023-08-17T02:10:33;14.10;;;8.70;;
66800;SDS011;53703;50.326;19.122;2023-08-17T02:13:06;12.80;;;8.30;;
66800;SDS011;53703;50.326;19.122;2023-08-17T02:15:48;13.30;;;9.00;;
66800;SDS011;53703;50.326;19.122;2023-08-17T02:18:21;12.20;;;8.70;;
66800;SDS011;53703;50.326;19.122;2023-08-17T02:20:55;11.40;;;8.30;;
66800;SDS011;53703;50.326;19.122;2023-08-17T02:23:28;13.30;;;8.40;;
66800;SDS011;53703;50.326;19.122;2023-08-17T02:26:02;10.60;;;8.10;;
66800;SDS011;53703;50.326;19.122;2023-08-17T02:28:35;12.00;;;8.00;;
66800;SDS011;53703;50.326;19.122;2023-08-17T02:31:09;12.20;;;8.20;;
66800;SDS011;53703;50.326;19.122;2023-08-17T02:33:42;13.00;;;8.00;;
66800;SDS011;53703;50.326;19.122;2023-08-17T02:36:16;11.10;;;7.90;;
66800;SDS011;53703;50.326;19.122;2023-08-17T02:38:49;11.50;;;8.20;;
66800;SDS011;53703;50.326;19.122;2023-08-17T02:41:23;10.10;;;7.90;;
66800;SDS011;53703;50.326;19.122;2023-08-17T02:43:57;11.40;;;8.10;;
66800;SDS011;53703;50.326;19.122;2023-08-17T02:46:30;12.30;;;7.20;;
66800;SDS011;53703;50.326;19.122;2023-08-17T02:49:04;12.80;;;7.90;;
66800;SDS011;53703;50.326;19.122;2023-08-17T02:51:38;10.30;;;7.50;;
66800;SDS011;53703;50.326;19.122;2023-08-17T02:54:14;11.90;;;7.70;;
66800;SDS011;53703;50.326;19.122;2023-08-17T02:56:47;11.70;;;7.70;;
66800;SDS011;53703;50.326;19.122;2023-08-17T02:59:21;10.70;;;7.60;;
66800;SDS011;53703;50.326;19.122;2023-08-17T03:01:55;10.50;;;7.70;;
66800;SDS011;53703;50.326;19.122;2023-08-17T03:04:28;10.40;;;7.50;;
66800;SDS011;53703;50.326;19.122;2023-08-17T03:07:03;10.20;;;7.80;;
66800;SDS011;53703;50.326;19.122;2023-08-17T03:09:36;13.50;;;7.60;;
66800;SDS011;53703;50.326;19.122;2023-08-17T03:12:10;11.80;;;7.80;;
66800;SDS011;53703;50.326;19.122;2023-08-17T03:14:43;11.20;;;7.90;;
66800;SDS011;53703;50.326;19.122;2023-08-17T03:17:17;11.20;;;7.60;;
66800;SDS011;53703;50.326;19.122;2023-08-17T03:19:50;12.60;;;7.40;;
66800;SDS011;53703;50.326;19.122;2023-08-17T03:22:24;12.10;;;7.80;;
66800;SDS011;53703;50.326;19.122;2023-08-17T03:25:01;13.60;;;7.80;;
66800;SDS011;53703;50.326;19.122;2023-08-17T03:27:35;10.80;;;8.00;;
66800;SDS011;53703;50.326;19.122;2023-08-17T03:30:09;15.60;;;8.10;;
66800;SDS011;53703;50.326;19.122;2023-08-17T03:32:43;12.20;;;7.60;;
66800;SDS011;53703;50.326;19.122;2023-08-17T03:35:17;11.40;;;8.00;;
66800;SDS011;53703;50.326;19.122;2023-08-17T03:37:50;12.10;;;7.60;;
66800;SDS011;53703;50.326;19.122;2023-08-17T03:40:23;13.40;;;8.30;;
66800;SDS011;53703;50.326;19.122;2023-08-17T03:42:57;12.30;;;8.20;;
66800;SDS011;53703;50.326;19.122;2023-08-17T03:45:33;13.80;;;8.30;;
66800;SDS011;53703;50.326;19.122;2023-08-17T03:48:07;11.80;;;7.90;;
66800;SDS011;53703;50.326;19.122;2023-08-17T03:50:41;13.80;;;8.40;;
66800;SDS011;53703;50.326;19.122;2023-08-17T03:53:14;13.60;;;8.80;;
66800;SDS011;53703;50.326;19.122;2023-08-17T03:55:49;14.50;;;8.90;;
66800;SDS011;53703;50.326;19.122;2023-08-17T03:58:23;13.40;;;8.50;;
66800;SDS011;53703;50.326;19.122;2023-08-17T04:00:57;12.50;;;8.60;;
66800;SDS011;53703;50.326;19.122;2023-08-17T04:03:30;14.10;;;9.10;;
66800;SDS011;53703;50.326;19.122;2023-08-17T04:06:07;14.70;;;9.30;;
66800;SDS011;53703;50.326;19.122;2023-08-17T04:08:41;14.00;;;9.60;;
66800;SDS011;53703;50.326;19.122;2023-08-17T04:11:14;14.10;;;9.60;;
66800;SDS011;53703;50.326;19.122;2023-08-17T04:13:47;16.90;;;9.60;;
66800;SDS011;53703;50.326;19.122;2023-08-17T04:16:24;13.30;;;9.20;;
66800;SDS011;53703;50.326;19.122;2023-08-17T04:18:57;13.20;;;8.60;;
66800;SDS011;53703;50.326;19.122;2023-08-17T04:21:31;14.90;;;9.10;;
66800;SDS011;53703;50.326;19.122;2023-08-17T04:24:05;13.60;;;9.20;;
66800;SDS011;53703;50.326;19.122;2023-08-17T04:26:39;12.90;;;8.80;;
66800;SDS011;53703;50.326;19.122;2023-08-17T04:29:12;14.90;;;9.40;;
66800;SDS011;53703;50.326;19.122;2023-08-17T04:31:46;14.50;;;9.20;;
66800;SDS011;53703;50.326;19.122;2023-08-17T04:34:19;13.20;;;9.40;;
66800;SDS011;53703;50.326;19.122;2023-08-17T04:36:53;13.90;;;9.60;;
66800;SDS011;53703;50.326;19.122;2023-08-17T04:39:27;17.30;;;9.10;;
66800;SDS011;53703;50.326;19.122;2023-08-17T04:42:00;14.40;;;9.20;;
66800;SDS011;53703;50.326;19.122;2023-08-17T04:44:36;15.20;;;9.40;;
66800;SDS011;53703;50.326;19.122;2023-08-17T04:47:09;14.80;;;9.30;;
66800;SDS011;53703;50.326;19.122;2023-08-17T04:49:42;14.00;;;9.60;;
66800;SDS011;53703;50.326;19.122;2023-08-17T04:52:16;16.50;;;10.70;;
66800;SDS011;53703;50.326;19.122;2023-08-17T04:54:49;17.70;;;10.00;;
66800;SDS011;53703;50.326;19.122;2023-08-17T04:57:23;16.30;;;10.40;;
66800;SDS011;53703;50.326;19.122;2023-08-17T04:59:57;16.00;;;10.10;;
66800;SDS011;53703;50.326;19.122;2023-08-17T05:02:31;17.80;;;10.40;;
66800;SDS011;53703;50.326;19.122;2023-08-17T05:05:06;16.50;;;10.20;;
66800;SDS011;53703;50.326;19.122;2023-08-17T05:07:41;17.60;;;10.20;;
66800;SDS011;53703;50.326;19.122;2023-08-17T05:10:15;17.40;;;10.50;;
66800;SDS011;53703;50.326;19.122;2023-08-17T05:12:48;14.30;;;9.20;;
66800;SDS011;53703;50.326;19.122;2023-08-17T05:15:24;15.10;;;9.20;;
66800;SDS011;53703;50.326;19.122;2023-08-17T05:17:58;17.80;;;10.30;;
66800;SDS011;53703;50.326;19.122;2023-08-17T05:20:32;14.00;;;9.70;;
66800;SDS011;53703;50.326;19.122;2023-08-17T05:23:06;20.00;;;11.50;;
66800;SDS011;53703;50.326;19.122;2023-08-17T05:25:39;18.00;;;11.50;;
66800;SDS011;53703;50.326;19.122;2023-08-17T05:28:12;21.40;;;13.10;;
66800;SDS011;53703;50.326;19.122;2023-08-17T05:30:46;18.90;;;11.30;;
66800;SDS011;53703;50.326;19.122;2023-08-17T05:33:23;18.70;;;11.20;;
66800;SDS011;53703;50.326;19.122;2023-08-17T05:35:56;17.60;;;11.00;;
66800;SDS011;53703;50.326;19.122;2023-08-17T05:38:33;17.90;;;11.30;;
66800;SDS011;53703;50.326;19.122;2023-08-17T05:41:10;20.90;;;11.50;;
66800;SDS011;53703;50.326;19.122;2023-08-17T05:43:46;16.10;;;11.30;;
66800;SDS011;53703;50.326;19.122;2023-08-17T05:46:20;17.70;;;11.00;;
66800;SDS011;53703;50.326;19.122;2023-08-17T05:48:53;19.10;;;10.70;;
66800;SDS011;53703;50.326;19.122;2023-08-17T05:51:27;17.00;;;10.70;;
66800;SDS011;53703;50.326;19.122;2023-08-17T05:54:00;16.90;;;10.60;;
66800;SDS011;53703;50.326;19.122;2023-08-17T05:56:33;16.30;;;11.50;;
66800;SDS011;53703;50.326;19.122;2023-08-17T05:59:07;14.10;;;10.20;;
66800;SDS011;53703;50.326;19.122;2023-08-17T06:01:40;16.90;;;11.20;;
66800;SDS011;53703;50.326;19.122;2023-08-17T06:04:14;16.10;;;11.20;;
66800;SDS011;53703;50.326;19.122;2023-08-17T06:06:47;16.70;;;10.80;;
66800;SDS011;53703;50.326;19.122;2023-08-17T06:09:21;18.90;;;11.00;;
66800;SDS011;53703;50.326;19.122;2023-08-17T06:11:54;17.60;;;11.60;;
66800;SDS011;53703;50.326;19.122;2023-08-17T06:14:28;16.10;;;11.50;;
66800;SDS011;53703;50.326;19.122;2023-08-17T06:17:01;16.70;;;11.10;;
66800;SDS011;53703;50.326;19.122;2023-08-17T06:19:35;17.40;;;11.40;;
66800;SDS011;53703;50.326;19.122;2023-08-17T06:22:10;15.10;;;10.90;;
66800;SDS011;53703;50.326;19.122;2023-08-17T06:24:43;17.50;;;11.40;;
66800;SDS011;53703;50.326;19.122;2023-08-17T06:27:17;19.40;;;12.10;;
66800;SDS011;53703;50.326;19.122;2023-08-17T06:29:50;18.80;;;11.80;;
66800;SDS011;53703;50.326;19.122;2023-08-17T06:32:23;20.00;;;12.80;;
66800;SDS011;53703;50.326;19.122;2023-08-17T06:34:57;19.40;;;12.20;;
66800;SDS011;53703;50.326;19.122;2023-08-17T06:37:30;18.80;;;11.50;;
66800;SDS011;53703;50.326;19.122;2023-08-17T06:40:04;20.90;;;11.40;;
66800;SDS011;53703;50.326;19.122;2023-08-17T06:42:39;17.70;;;12.60;;
66800;SDS011;53703;50.326;19.122;2023-08-17T06:45:13;16.70;;;12.20;;
66800;SDS011;53703;50.326;19.122;2023-08-17T06:47:49;19.50;;;12.50;;
66800;SDS011;53703;50.326;19.122;2023-08-17T06:50:22;16.90;;;12.20;;
66800;SDS011;53703;50.326;19.122;2023-08-17T06:52:57;17.20;;;11.90;;
66800;SDS011;53703;50.326;19.122;2023-08-17T06:55:30;23.60;;;13.40;;
66800;SDS011;53703;50.326;19.122;2023-08-17T06:58:04;22.40;;;12.40;;
66800;SDS011;53703;50.326;19.122;2023-08-17T07:00:58;17.50;;;12.00;;
66800;SDS011;53703;50.326;19.122;2023-08-17T07:03:39;20.30;;;11.80;;
66800;SDS011;53703;50.326;19.122;2023-08-17T07:06:21;36.40;;;23.60;;
66800;SDS011;53703;50.326;19.122;2023-08-17T07:09:04;20.40;;;12.60;;
66800;SDS011;53703;50.326;19.122;2023-08-17T07:11:41;22.10;;;13.60;;
66800;SDS011;53703;50.326;19.122;2023-08-17T07:14:18;18.60;;;12.40;;
66800;SDS011;53703;50.326;19.122;2023-08-17T07:16:52;20.00;;;12.80;;
66800;SDS011;53703;50.326;19.122;2023-08-17T07:19:26;21.40;;;13.20;;
66800;SDS011;53703;50.326;19.122;2023-08-17T07:22:20;22.80;;;13.00;;
66800;SDS011;53703;50.326;19.122;2023-08-17T07:24:56;23.90;;;15.10;;
66800;SDS011;53703;50.326;19.122;2023-08-17T07:27:29;19.00;;;13.40;;
66800;SDS011;53703;50.326;19.122;2023-08-17T07:30:07;23.20;;;13.80;;
66800;SDS011;53703;50.326;19.122;2023-08-17T07:32:45;22.30;;;13.00;;
66800;SDS011;53703;50.326;19.122;2023-08-17T07:35:21;21.20;;;12.70;;
66800;SDS011;53703;50.326;19.122;2023-08-17T07:37:57;21.90;;;13.20;;
66800;SDS011;53703;50.326;19.122;2023-08-17T07:40:41;21.40;;;13.60;;
66800;SDS011;53703;50.326;19.122;2023-08-17T07:43:35;22.40;;;13.70;;
66800;SDS011;53703;50.326;19.122;2023-08-17T07:46:11;23.40;;;14.40;;
66800;SDS011;53703;50.326;19.122;2023-08-17T07:48:53;21.40;;;13.40;;
66800;SDS011;53703;50.326;19.122;2023-08-17T07:51:27;29.00;;;17.20;;
66800;SDS011;53703;50.326;19.122;2023-08-17T07:54:02;22.60;;;13.90;;
66800;SDS011;53703;50.326;19.122;2023-08-17T07:56:39;22.90;;;14.30;;
66800;SDS011;53703;50.326;19.122;2023-08-17T07:59:15;20.80;;;14.30;;
66800;SDS011;53703;50.326;19.122;2023-08-17T08:01:57;19.90;;;13.00;;
66800;SDS011;53703;50.326;19.122;2023-08-17T08:04:34;23.60;;;14.20;;
66800;SDS011;53703;50.326;19.122;2023-08-17T08:07:08;24.10;;;14.20;;
66800;SDS011;53703;50.326;19.122;2023-08-17T08:09:41;21.90;;;14.30;;
66800;SDS011;53703;50.326;19.122;2023-08-17T08:12:35;20.30;;;13.00;;
66800;SDS011;53703;50.326;19.122;2023-08-17T08:15:12;22.20;;;12.90;;
66800;SDS011;53703;50.326;19.122;2023-08-17T08:18:06;20.20;;;13.30;;
66800;SDS011;53703;50.326;19.122;2023-08-17T08:20:40;22.80;;;14.00;;
66800;SDS011;53703;50.326;19.122;2023-08-17T08:23:13;21.00;;;13.50;;
66800;SDS011;53703;50.326;19.122;2023-08-17T08:25:47;21.70;;;13.70;;
66800;SDS011;53703;50.326;19.122;2023-08-17T08:28:20;21.30;;;13.60;;
66800;SDS011;53703;50.326;19.122;2023-08-17T08:30:54;19.80;;;13.50;;
66800;SDS011;53703;50.326;19.122;2023-08-17T08:33:32;20.70;;;13.90;;
66800;SDS011;53703;50.326;19.122;2023-08-17T08:36:06;21.50;;;13.50;;
66800;SDS011;53703;50.326;19.122;2023-08-17T08:38:42;18.90;;;13.20;;
66800;SDS011;53703;50.326;19.122;2023-08-17T08:41:15;21.80;;;13.20;;
66800;SDS011;53703;50.326;19.122;2023-08-17T08:43:52;21.40;;;13.60;;
66800;SDS011;53703;50.326;19.122;2023-08-17T08:46:46;22.70;;;14.10;;
66800;SDS011;53703;50.326;19.122;2023-08-17T08:49:24;20.50;;;13.70;;
66800;SDS011;53703;50.326;19.122;2023-08-17T08:51:59;21.50;;;14.10;;
66800;SDS011;53703;50.326;19.122;2023-08-17T08:54:37;22.40;;;14.10;;
66800;SDS011;53703;50.326;19.122;2023-08-17T08:57:15;19.70;;;13.30;;
66800;SDS011;53703;50.326;19.122;2023-08-17T08:59:52;24.70;;;15.40;;
66800;SDS011;53703;50.326;19.122;2023-08-17T09:02:28;24.50;;;14.50;;
66800;SDS011;53703;50.326;19.122;2023-08-17T09:05:01;21.70;;;14.60;;
66800;SDS011;53703;50.326;19.122;2023-08-17T09:07:37;25.70;;;15.60;;
66800;SDS011;53703;50.326;19.122;2023-08-17T09:10:11;23.10;;;15.10;;
66800;SDS011;53703;50.326;19.122;2023-08-17T09:12:49;22.40;;;16.00;;
66800;SDS011;53703;50.326;19.122;2023-08-17T09:15:26;23.90;;;15.10;;
66800;SDS011;53703;50.326;19.122;2023-08-17T09:18:03;22.20;;;14.40;;
66800;SDS011;53703;50.326;19.122;2023-08-17T09:21:03;22.70;;;15.90;;
66800;SDS011;53703;50.326;19.122;2023-08-17T09:23:38;22.00;;;14.60;;
66800;SDS011;53703;50.326;19.122;2023-08-17T09:26:33;23.80;;;15.10;;
66800;SDS011;53703;50.326;19.122;2023-08-17T09:29:18;22.90;;;14.60;;
66800;SDS011;53703;50.326;19.122;2023-08-17T09:31:54;21.90;;;15.40;;
66800;SDS011;53703;50.326;19.122;2023-08-17T09:34:27;20.00;;;13.90;;
66800;SDS011;53703;50.326;19.122;2023-08-17T09:37:07;19.60;;;13.40;;
66800;SDS011;53703;50.326;19.122;2023-08-17T09:39:40;20.10;;;13.30;;
66800;SDS011;53703;50.326;19.122;2023-08-17T09:42:14;17.90;;;13.20;;
66800;SDS011;53703;50.326;19.122;2023-08-17T09:44:48;18.90;;;12.70;;
66800;SDS011;53703;50.326;19.122;2023-08-17T09:47:22;17.20;;;12.10;;
66800;SDS011;53703;50.326;19.122;2023-08-17T09:49:57;19.90;;;12.20;;
66800;SDS011;53703;50.326;19.122;2023-08-17T09:52:30;19.50;;;12.90;;
66800;SDS011;53703;50.326;19.122;2023-08-17T09:55:05;18.80;;;12.60;;
66800;SDS011;53703;50.326;19.122;2023-08-17T09:57:41;20.40;;;12.40;;
66800;SDS011;53703;50.326;19.122;2023-08-17T10:00:16;22.10;;;12.70;;
66800;SDS011;53703;50.326;19.122;2023-08-17T10:02:51;23.00;;;14.60;;
66800;SDS011;53703;50.326;19.122;2023-08-17T10:05:27;25.20;;;13.50;;
66800;SDS011;53703;50.326;19.122;2023-08-17T10:08:11;20.60;;;13.10;;
66800;SDS011;53703;50.326;19.122;2023-08-17T10:10:50;18.10;;;13.00;;
66800;SDS011;53703;50.326;19.122;2023-08-17T10:13:28;23.10;;;13.80;;
66800;SDS011;53703;50.326;19.122;2023-08-17T10:16:09;21.70;;;12.40;;
66800;SDS011;53703;50.326;19.122;2023-08-17T10:18:53;22.50;;;12.90;;
66800;SDS011;53703;50.326;19.122;2023-08-17T10:21:34;20.70;;;12.80;;
66800;SDS011;53703;50.326;19.122;2023-08-17T10:24:12;18.80;;;12.70;;
66800;SDS011;53703;50.326;19.122;2023-08-17T10:26:46;22.10;;;12.80;;
66800;SDS011;53703;50.326;19.122;2023-08-17T10:31:57;19.30;;;11.90;;
66800;SDS011;53703;50.326;19.122;2023-08-17T10:34:33;16.20;;;11.70;;
66800;SDS011;53703;50.326;19.122;2023-08-17T10:37:10;20.30;;;11.80;;
66800;SDS011;53703;50.326;19.122;2023-08-17T10:39:48;18.30;;;12.10;;
66800;SDS011;53703;50.326;19.122;2023-08-17T10:42:33;18.20;;;10.80;;
66800;SDS011;53703;50.326;19.122;2023-08-17T10:45:27;15.00;;;10.70;;
66800;SDS011;53703;50.326;19.122;2023-08-17T10:48:29;18.50;;;11.60;;
66800;SDS011;53703;50.326;19.122;2023-08-17T10:51:10;18.80;;;12.40;;
66800;SDS011;53703;50.326;19.122;2023-08-17T10:53:47;20.10;;;12.90;;
66800;SDS011;53703;50.326;19.122;2023-08-17T10:59:27;19.70;;;11.80;;
66800;SDS011;53703;50.326;19.122;2023-08-17T11:02:00;18.40;;;12.30;;
66800;SDS011;53703;50.326;19.122;2023-08-17T11:04:34;15.40;;;11.60;;
66800;SDS011;53703;50.326;19.122;2023-08-17T11:07:08;18.90;;;11.60;;
66800;SDS011;53703;50.326;19.122;2023-08-17T11:09:47;17.70;;;11.00;;
66800;SDS011;53703;50.326;19.122;2023-08-17T11:12:29;14.70;;;10.50;;
66800;SDS011;53703;50.326;19.122;2023-08-17T11:15:06;16.00;;;10.10;;
66800;SDS011;53703;50.326;19.122;2023-08-17T11:18:00;15.40;;;10.40;;
66800;SDS011;53703;50.326;19.122;2023-08-17T11:20:40;15.40;;;10.00;;
66800;SDS011;53703;50.326;19.122;2023-08-17T11:23:17;14.30;;;10.10;;
66800;SDS011;53703;50.326;19.122;2023-08-17T11:25:55;15.40;;;10.00;;
66800;SDS011;53703;50.326;19.122;2023-08-17T11:28:33;14.40;;;10.40;;
66800;SDS011;53703;50.326;19.122;2023-08-17T11:31:14;17.40;;;10.50;;
66800;SDS011;53703;50.326;19.122;2023-08-17T11:33:48;17.80;;;10.60;;
66800;SDS011;53703;50.326;19.122;2023-08-17T11:36:34;16.10;;;10.50;;
66800;SDS011;53703;50.326;19.122;2023-08-17T11:39:08;13.50;;;9.00;;
66800;SDS011;53703;50.326;19.122;2023-08-17T11:41:43;13.60;;;9.10;;
66800;SDS011;53703;50.326;19.122;2023-08-17T11:44:17;15.30;;;7.20;;
66800;SDS011;53703;50.326;19.122;2023-08-17T11:46:54;14.60;;;6.80;;
66800;SDS011;53703;50.326;19.122;2023-08-17T11:49:29;15.40;;;6.10;;
66800;SDS011;53703;50.326;19.122;2023-08-17T11:52:29;13.20;;;5.80;;
66800;SDS011;53703;50.326;19.122;2023-08-17T11:55:03;15.50;;;6.20;;
66800;SDS011;53703;50.326;19.122;2023-08-17T11:57:40;12.00;;;6.20;;
66800;SDS011;53703;50.326;19.122;2023-08-17T12:00:18;13.20;;;6.40;;
66800;SDS011;53703;50.326;19.122;2023-08-17T12:02:53;12.40;;;6.50;;
66800;SDS011;53703;50.326;19.122;2023-08-17T12:05:26;11.10;;;5.60;;
66800;SDS011;53703;50.326;19.122;2023-08-17T12:08:02;10.90;;;6.80;;
66800;SDS011;53703;50.326;19.122;2023-08-17T12:10:39;11.80;;;5.80;;
66800;SDS011;53703;50.326;19.122;2023-08-17T12:13:13;9.50;;;6.00;;
66800;SDS011;53703;50.326;19.122;2023-08-17T12:15:47;9.80;;;6.20;;
66800;SDS011;53703;50.326;19.122;2023-08-17T12:18:22;10.90;;;5.80;;
66800;SDS011;53703;50.326;19.122;2023-08-17T12:20:56;9.20;;;6.50;;
66800;SDS011;53703;50.326;19.122;2023-08-17T12:23:31;9.80;;;5.70;;
66800;SDS011;53703;50.326;19.122;2023-08-17T12:26:05;12.80;;;6.50;;
66800;SDS011;53703;50.326;19.122;2023-08-17T12:28:40;10.50;;;6.50;;
66800;SDS011;53703;50.326;19.122;2023-08-17T12:31:14;9.00;;;6.30;;
66800;SDS011;53703;50.326;19.122;2023-08-17T12:33:54;12.30;;;6.40;;
66800;SDS011;53703;50.326;19.122;2023-08-17T12:36:29;10.40;;;6.50;;
66800;SDS011;53703;50.326;19.122;2023-08-17T12:39:03;8.50;;;6.00;;
66800;SDS011;53703;50.326;19.122;2023-08-17T12:41:37;11.00;;;6.10;;
66800;SDS011;53703;50.326;19.122;2023-08-17T12:44:11;8.60;;;6.60;;
66800;SDS011;53703;50.326;19.122;2023-08-17T12:46:47;10.70;;;6.00;;
66800;SDS011;53703;50.326;19.122;2023-08-17T12:49:23;9.90;;;6.00;;
66800;SDS011;53703;50.326;19.122;2023-08-17T12:51:57;10.10;;;6.30;;
66800;SDS011;53703;50.326;19.122;2023-08-17T12:54:30;10.10;;;6.70;;
66800;SDS011;53703;50.326;19.122;2023-08-17T12:57:04;10.90;;;6.00;;
66800;SDS011;53703;50.326;19.122;2023-08-17T12:59:42;9.00;;;6.30;;
66800;SDS011;53703;50.326;19.122;2023-08-17T13:02:16;8.90;;;6.00;;
66800;SDS011;53703;50.326;19.122;2023-08-17T13:04:49;8.80;;;6.40;;
66800;SDS011;53703;50.326;19.122;2023-08-17T13:07:23;8.80;;;5.90;;
66800;SDS011;53703;50.326;19.122;2023-08-17T13:09:56;9.60;;;6.00;;
66800;SDS011;53703;50.326;19.122;2023-08-17T13:12:30;10.30;;;6.30;;
66800;SDS011;53703;50.326;19.122;2023-08-17T13:15:04;9.00;;;6.70;;
66800;SDS011;53703;50.326;19.122;2023-08-17T13:17:38;9.60;;;6.80;;
66800;SDS011;53703;50.326;19.122;2023-08-17T13:20:13;12.40;;;7.30;;
66800;SDS011;53703;50.326;19.122;2023-08-17T13:22:46;10.20;;;7.20;;
66800;SDS011;53703;50.326;19.122;2023-08-17T13:25:20;13.00;;;7.30;;
66800;SDS011;53703;50.326;19.122;2023-08-17T13:27:53;11.50;;;6.80;;
66800;SDS011;53703;50.326;19.122;2023-08-17T13:30:27;12.20;;;7.20;;
66800;SDS011;53703;50.326;19.122;2023-08-17T13:33:00;10.90;;;6.50;;
66800;SDS011;53703;50.326;19.122;2023-08-17T13:35:34;11.20;;;6.10;;
66800;SDS011;53703;50.326;19.122;2023-08-17T13:38:08;9.60;;;6.30;;
66800;SDS011;53703;50.326;19.122;2023-08-17T13:40:41;10.20;;;6.00;;
66800;SDS011;53703;50.326;19.122;2023-08-17T13:43:15;10.40;;;6.50;;
66800;SDS011;53703;50.326;19.122;2023-08-17T13:45:48;9.90;;;6.30;;
66800;SDS011;53703;50.326;19.122;2023-08-17T13:48:22;13.10;;;5.70;;
66800;SDS011;53703;50.326;19.122;2023-08-17T13:50:55;11.60;;;6.00;;
66800;SDS011;53703;50.326;19.122;2023-08-17T13:53:29;10.50;;;5.70;;
66800;SDS011;53703;50.326;19.122;2023-08-17T13:56:02;11.30;;;7.10;;
66800;SDS011;53703;50.326;19.122;2023-08-17T13:58:36;12.30;;;6.30;;
66800;SDS011;53703;50.326;19.122;2023-08-17T14:01:09;11.30;;;6.20;;
66800;SDS011;53703;50.326;19.122;2023-08-17T14:03:46;10.10;;;5.60;;
66800;SDS011;53703;50.326;19.122;2023-08-17T14:06:20;9.80;;;5.60;;
66800;SDS011;53703;50.326;19.122;2023-08-17T14:08:53;8.10;;;5.60;;
66800;SDS011;53703;50.326;19.122;2023-08-17T14:11:28;8.40;;;5.20;;
66800;SDS011;53703;50.326;19.122;2023-08-17T14:14:02;7.70;;;4.90;;
66800;SDS011;53703;50.326;19.122;2023-08-17T14:16:38;6.70;;;4.70;;
66800;SDS011;53703;50.326;19.122;2023-08-17T14:19:12;8.40;;;4.60;;
66800;SDS011;53703;50.326;19.122;2023-08-17T14:21:45;7.20;;;5.20;;
66800;SDS011;53703;50.326;19.122;2023-08-17T14:24:19;7.40;;;4.80;;
66800;SDS011;53703;50.326;19.122;2023-08-17T14:26:52;9.70;;;4.80;;
66800;SDS011;53703;50.326;19.122;2023-08-17T14:29:27;7.70;;;5.10;;
66800;SDS011;53703;50.326;19.122;2023-08-17T14:32:01;8.90;;;5.40;;
66800;SDS011;53703;50.326;19.122;2023-08-17T14:34:35;10.60;;;5.00;;
66800;SDS011;53703;50.326;19.122;2023-08-17T14:37:08;8.00;;;4.40;;
66800;SDS011;53703;50.326;19.122;2023-08-17T14:39:42;7.90;;;4.30;;
66800;SDS011;53703;50.326;19.122;2023-08-17T14:42:15;6.10;;;4.50;;
66800;SDS011;53703;50.326;19.122;2023-08-17T14:44:48;6.50;;;4.50;;
66800;SDS011;53703;50.326;19.122;2023-08-17T14:47:22;6.90;;;4.50;;
66800;SDS011;53703;50.326;19.122;2023-08-17T14:49:56;7.90;;;4.50;;
66800;SDS011;53703;50.326;19.122;2023-08-17T14:52:29;8.10;;;4.90;;
66800;SDS011;53703;50.326;19.122;2023-08-17T14:55:04;8.80;;;4.90;;
66800;SDS011;53703;50.326;19.122;2023-08-17T14:57:39;7.70;;;4.30;;
66800;SDS011;53703;50.326;19.122;2023-08-17T15:00:14;6.70;;;4.30;;
66800;SDS011;53703;50.326;19.122;2023-08-17T15:02:48;7.10;;;4.60;;
66800;SDS011;53703;50.326;19.122;2023-08-17T15:05:22;8.20;;;4.80;;
66800;SDS011;53703;50.326;19.122;2023-08-17T15:07:58;7.00;;;4.60;;
66800;SDS011;53703;50.326;19.122;2023-08-17T15:10:32;7.40;;;4.50;;